• Join FlightAware (Why Join?)
  • Login
  • US Flag 
Rudolph Flight #1: Arrived! 
06:33PM EST


 

Airport Tracker/Info


-or-


 

Live Flight TrackerFlight Track Log ✈ AWE1940 ✈ 03-May-2013 ✈ KCLT - KALB

Flight Track Log - Related Links

Times and Time Zones

All times are in EDT time to prevent confusion due to time zone crossing. See the AWE1940 flight status page for this flight to view local times or setup timezone preferences in your user account.

Time Position Orientation Groundspeed Altitude Reporting Facility
EDT Latitude Longitude Course Direction KTS MPH feet Rate Location/Type
10:55PM 35.2306 -80.9392 72° East 166 191 1,600  Level Atlanta Center
10:56PM 35.2453 -80.9411 354° North 158 182 2,300 1,800 Climbing Atlanta Center
10:57PM 35.2925 -80.9167 23° Northeast 212 244 4,000 1,920 Climbing Atlanta Center
10:58PM 35.1207 -80.6196 29° Northeast  Level FlightAware Approximate
10:58PM 35.3053 -80.8397 78° East 254 292 6,200  Level Atlanta Center
10:59PM 35.2199 -80.5525 30° Northeast  Level FlightAware Approximate
10:59PM 35.3236 -80.7447 77° East 263 303 8,000  Level Atlanta Center
11:00PM 35.3167 -80.4816 90° East  Level FlightAware Approximate
11:00PM 35.3397 -80.6500 78° East 281 323 10,500  Level Atlanta Center
11:01PM 35.3594 -80.3681 72° East  Level FlightAware Approximate
11:01PM 35.3581 -80.5575 76° East 289 333 11,500  Level Atlanta Center
11:02PM 35.3794 -80.4344 78° East 341 392 13,100 1,740 Climbing Atlanta Center
11:04PM 35.4381 -80.1197 77° East 397 457 17,500 1,980 Climbing Washington Center
11:05PM 35.4792 -79.9714 71° East 408 470 19,900 1,980 Climbing Washington Center
11:06PM 35.5133 -79.8356 73° East 413 475 21,500 1,380 Climbing Washington Center
11:07PM 35.5475 -79.6944 73° East 418 481 22,800 1,200 Climbing Washington Center
11:08PM 35.5833 -79.5608 72° East 435 501 24,000 1,200 Climbing Washington Center
11:09PM 35.6303 -79.3997 70° East 450 518 25,200 1,500 Climbing Washington Center
11:10PM 35.7092 -79.2781 51° Northeast 443 510 27,000 1,500 Climbing Washington Center
11:11PM 35.7881 -79.1539 52° Northeast 448 516 28,300 1,440 Climbing Washington Center
11:12PM 35.8667 -79.0292 52° Northeast 454 522 30,000 1,560 Climbing Washington Center
11:13PM 35.9575 -78.9228 43° Northeast 454 522 31,500 1,260 Climbing Washington Center
11:14PM 36.0581 -78.8294 37° Northeast 442 509 32,600 900 Climbing Washington Center
11:15PM 36.1567 -78.7331 38° Northeast 447 514 33,300 780 Climbing Washington Center
11:16PM 36.2594 -78.6342 38° Northeast 452 520 34,300 900 Climbing Washington Center
11:17PM 36.3619 -78.5350 38° Northeast 457 526 35,100 840 Climbing Washington Center
11:18PM 36.4644 -78.4331 39° Northeast 457 526 36,000 780 Climbing Washington Center
11:19PM 36.5650 -78.3331 39° Northeast 457 526 36,700 480 Climbing Washington Center
11:20PM 36.6672 -78.2331 38° Northeast 457 526 37,000 120 Climbing Washington Center
11:21PM 36.7697 -78.1331 38° Northeast 457 526 37,000  Level Washington Center
11:22PM 36.8719 -78.0297 39° Northeast 462 532 37,000  Level Washington Center
11:23PM 36.9742 -77.9292 38° Northeast 462 532 37,000  Level Washington Center
11:24PM 37.0761 -77.8256 39° Northeast 462 532 37,000  Level Washington Center
11:25PM 37.1781 -77.7242 38° Northeast 462 532 37,000  Level Washington Center
11:26PM 37.2800 -77.6225 38° Northeast 462 532 37,000  Level Washington Center
11:27PM 37.3819 -77.5208 38° Northeast 462 532 37,000  Level Washington Center
11:28PM 37.4856 -77.4186 38° Northeast 467 537 37,100  Climbing Washington Center
11:29PM 37.5872 -77.3164 39° Northeast 467 537 37,000 -60 Descending Washington Center
11:30PM 37.6911 -77.2111 39° Northeast 467 537 37,000  Level Washington Center
11:31PM 37.7925 -77.1053 40° Northeast 472 543 37,000  Level Washington Center
11:32PM 37.8917 -77.0022 39° Northeast 472 543 37,000  Level Washington Center
11:33PM 37.9931 -76.8986 39° Northeast 472 543 37,000  Level Washington Center
11:34PM 38.0942 -76.7922 40° Northeast 472 543 37,000  Level Washington Center
11:35PM 38.1953 -76.6856 40° Northeast 472 543 37,000  Level Washington Center
11:36PM 38.2964 -76.5864 38° Northeast 472 543 37,000  Level Washington Center
11:37PM 38.3803 -76.4950 40° Northeast 459 528 37,000  Level Washington Center
11:38PM 38.4792 -76.3925 39° Northeast 454 522 37,000  Level Washington Center
11:39PM 38.5797 -76.2875 39° Northeast 454 522 37,000  Level Washington Center
11:40PM 38.6764 -76.1847 40° Northeast 454 522 37,000  Level Washington Center
11:41PM 38.7811 -76.0789 38° Northeast 454 522 37,000  Level Washington Center
11:42PM 38.8731 -75.9756 41° Northeast 454 522 37,000  Level Washington Center
11:43PM 38.9733 -75.8719 39° Northeast 454 522 37,000  Level Washington Center
11:44PM 39.0717 -75.7708 39° Northeast 454 522 37,000 -60 Level Washington Center
11:45PM 39.1675 -75.6667 40° Northeast 449 517 36,900  Descending Washington Center
11:46PM 39.2614 -75.5647 40° Northeast 449 517 37,000  Climbing Washington Center
11:47PM 39.3572 -75.4600 40° Northeast 449 517 37,000  Level Washington Center
11:48PM 39.4508 -75.3578 40° Northeast 449 517 37,000 -60 Level Washington Center
11:49PM 39.5442 -75.2550 40° Northeast 449 517 36,900  Descending Washington Center
11:50PM 39.6397 -75.1550 39° Northeast 444 511 37,000  Climbing Washington Center
11:51PM 39.7331 -75.0464 42° Northeast 444 511 37,000  Level Washington Center
11:52PM 39.8347 -74.9375 39° Northeast 444 511 37,000 -60 Level Washington Center
11:54PM 39.9742 -74.7906 39° Northeast 451 519 36,900  Descending New York Center
11:55PM 40.0750 -74.7097 32° Northeast 446 513 37,000 -300 Climbing New York Center
11:56PM 40.1928 -74.6728 13° North 425 489 36,400 -900 Descending New York Center
11:57PM 40.3153 -74.6253 16° North 418 481 35,300 -1,020 Descending New York Center
11:58PM 40.4292 -74.5881 14° North 413 475 34,400 -1,020 Descending New York Center
11:59PM 40.5406 -74.5506 14° North 419 482 33,400 -1,020 Descending New York Center
12:00AM 40.7208 -74.4911 14° North 417 480 31,800 -1,200 Descending Boston Center
12:01AM 40.8339 -74.4536 14° North 417 480 30,400 -1,440 Descending Boston Center
12:02AM 40.9492 -74.4158 14° North 417 480 29,000 -1,260 Descending Boston Center
12:03AM 41.0539 -74.3861 12° North 417 480 27,900 -1,260 Descending Boston Center
12:04AM 41.1650 -74.3508 13° North 412 474 26,500 -960 Descending Boston Center
12:05AM 41.2700 -74.3097 16° North 404 465 26,000 -300 Descending Boston Center
12:06AM 41.3789 -74.2742 14° North 392 451 26,000  Level Boston Center
12:07AM 41.4878 -74.2358 15° North 397 457 26,000 -60 Level Boston Center
12:08AM 41.5947 -74.2028 13° North 397 457 25,900 -1,260 Descending Boston Center
12:09AM 41.7036 -74.1642 15° North 397 457 23,500 -2,580 Descending Boston Center
12:10AM 41.8167 -74.1308 12° North 391 450 20,800 -2,400 Descending Boston Center
12:11AM 41.9111 -74.0944 16° North 391 450 18,700 -2,220 Descending Boston Center
12:12AM 42.0408 -74.0475 15° North 377 434 16,100 -2,280 Descending Boston Center
12:13AM 42.1414 -74.0136 14° North 372 428 13,800 -2,280 Descending Boston Center
12:14AM 42.2275 -73.9767 18° North 314 361 11,600 -2,100 Descending Boston Center
12:15AM 42.3050 -73.9447 17° North 276 318 9,600 -2,160 Descending Boston Center
12:16AM 42.3806 -73.9128 17° North 281 323 7,300 -2,340 Descending Boston Center
12:17AM 42.4433 -73.8892 16° North 268 308 5,000 -2,160 Descending Boston Center
12:18AM 42.5250 -73.8572 16° North 267 307 3,000 -1,020 Descending Boston Center
12:19AM 42.5856 -73.8331 16° North 215 247 3,000 -300 Level Boston Center
12:20AM 42.6361 -73.8089 19° North 182 209 2,400 -840 Descending Boston Center
12:22AM 42.6839 -73.8069 North 168 193 1,400 -900 Descending Boston Center
12:23AM 42.7278 -73.8081 359° North 143 165 600 -840 Descending Boston Center